Terminal Aerodrome Forecast
Issued by NWS

Home | Current Version | Previous Version | Graphics & Text | Print | Product List | Glossary On
Versions: 1 2 3 4 5 6 7 8 9 10 11 12 13 14 15 16
000
FTUS43 KICT 210529
TAFCNU
TAF
KCNU 210529Z 2106/2206 17012KT P6SM BKN014
     FM211000 17013KT 6SM BR BKN008
     FM211600 19018G26KT P6SM BKN014
     FM211800 19018G27KT P6SM VCSH BKN025
     FM220000 17016G25KT P6SM BKN030
     FM220500 20014G23KT P6SM BKN030=

USA.gov is the U.S. government's official web portal to all federal, state and local government web resources and services.